Time;durP1;ratioP1;P1;durP2;ratioP2;P2;SDS_P1;SDS_P2;PMS_P1;PMS_P2;Temp;Humidity;BMP_temperature;BMP_pressure;BME280_temperature;BME280_humidity;BME280_pressure;Samples;Min_cycle;Max_cycle;Signal;HPM_P1;HPM_P2
2022/04/16 00:24:33;;;;;;;16.35;11.40;;;;;;;12.39;63.50;99128.63;1644432;86;21024;-73
2022/04/16 00:27:00;;;;;;;16.97;10.05;;;;;;;12.34;63.84;99121.38;1643301;87;21032;-74
2022/04/16 00:29:29;;;;;;;18.45;10.50;;;;;;;12.31;64.02;99123.45;1643254;87;21125;-74
2022/04/16 00:31:57;;;;;;;19.10;10.48;;;;;;;12.30;64.14;99119.05;1643265;86;20980;-79
2022/04/16 00:34:24;;;;;;;16.00;9.38;;;;;;;12.26;64.16;99123.09;1658889;85;21057;-76
2022/04/16 00:36:54;;;;;;;17.82;9.48;;;;;;;12.24;64.32;99130.91;1673206;85;21096;-73
2022/04/16 00:57:58;;;;;;;21.45;9.90;;;;;;;11.94;65.78;99122.73;1681087;84;20993;-76
2022/04/16 01:00:25;;;;;;;21.62;10.25;;;;;;;11.88;66.11;99130.41;1711117;83;21165;-78
2022/04/16 01:02:52;;;;;;;26.05;11.45;;;;;;;11.87;66.46;99148.69;1711786;83;21429;-78
2022/04/16 01:05:21;;;;;;;15.85;9.63;;;;;;;11.85;66.65;99139.94;1711567;83;20952;-78
2022/04/16 01:07:54;;;;;;;15.93;10.35;;;;;;;11.80;66.92;99129.91;1711802;83;21012;-74
2022/04/16 01:10:29;;;;;;;;;;;;;;;11.73;67.10;99143.44;1714334;83;21001;-74
2022/04/16 01:13:01;;;;;;;21.20;10.23;;;;;;;11.68;67.35;99121.00;1729494;82;21171;-75
2022/04/16 01:15:31;;;;;;;17.05;9.98;;;;;;;11.60;67.61;99106.70;1741349;82;21031;-78
2022/04/16 01:18:03;;;;;;;16.35;9.38;;;;;;;11.55;67.85;99098.03;1739172;82;21580;-75
2022/04/16 01:20:35;;;;;;;17.85;9.78;;;;;;;11.50;68.14;99073.44;1738844;82;21027;-76
2022/04/16 01:23:04;;;;;;;18.17;9.83;;;;;;;11.46;68.30;99080.77;1732057;82;20953;-76
2022/04/16 01:25:36;;;;;;;16.82;10.55;;;;;;;11.42;68.55;99100.75;1741118;82;20938;-73
2022/04/16 01:28:06;;;;;;;19.60;10.75;;;;;;;11.37;68.83;99113.36;1741051;82;20942;-75
2022/04/16 01:30:34;;;;;;;19.10;9.75;;;;;;;11.36;69.08;99137.14;1737480;82;20977;-72
2022/04/16 01:33:22;;;;;;;14.68;9.03;;;;;;;11.40;69.11;99131.17;1741163;82;20977;-75
2022/04/16 01:35:53;;;;;;;14.68;8.98;;;;;;;11.41;69.17;99134.98;1741389;82;21025;-74
2022/04/16 01:38:20;;;;;;;14.13;9.38;;;;;;;11.44;69.15;99134.33;1741115;82;21257;-75
2022/04/16 01:40:46;;;;;;;18.02;10.40;;;;;;;11.44;69.26;99131.57;1741375;82;20914;-75
2022/04/16 01:43:12;;;;;;;20.05;10.18;;;;;;;11.45;69.28;99129.60;1741060;82;20981;-76
2022/04/16 01:45:39;;;;;;;17.40;10.30;;;;;;;11.45;69.43;99118.56;1741032;82;21589;-78
2022/04/16 01:48:09;;;;;;;15.48;9.80;;;;;;;11.38;69.58;99124.62;1667607;82;21104;-77
2022/04/16 01:50:37;;;;;;;19.15;10.75;;;;;;;11.29;69.82;99107.34;1741059;82;21226;-75
2022/04/16 01:53:06;;;;;;;14.45;9.35;;;;;;;11.25;70.07;99114.09;1741146;82;20914;-76
2022/04/16 01:55:38;;;;;;;19.75;10.65;;;;;;;11.25;70.29;99120.17;1741162;82;20996;-76
2022/04/16 01:58:06;;;;;;;23.57;10.53;;;;;;;11.24;70.55;99126.84;1740955;82;21005;-75
2022/04/16 02:00:33;;;;;;;20.88;9.83;;;;;;;11.24;70.78;99126.84;1741322;82;20918;-76
2022/04/16 02:03:00;;;;;;;18.60;10.20;;;;;;;11.23;70.91;99132.09;1741146;82;22574;-76
2022/04/16 02:05:29;;;;;;;18.50;11.00;;;;;;;11.20;71.01;99130.83;1741096;82;21387;-75
2022/04/16 02:07:57;;;;;;;21.30;12.05;;;;;;;11.20;71.23;99133.02;1713149;82;20882;-76
2022/04/16 02:10:25;;;;;;;22.60;11.08;;;;;;;11.18;71.51;99135.30;1741111;82;20961;-77
2022/04/16 02:12:55;;;;;;;16.23;10.90;;;;;;;11.17;71.69;99139.18;1712543;82;20983;-74
2022/04/16 02:15:28;;;;;;;18.37;10.65;;;;;;;11.22;71.79;99142.90;1740876;82;21018;-77
2022/04/16 02:17:56;;;;;;;26.80;11.45;;;;;;;11.24;71.81;99141.41;1741179;82;21062;-81
2022/04/16 02:20:27;;;;;;;16.65;10.28;;;;;;;11.26;71.81;99133.63;1741131;82;20847;-77
2022/04/16 02:22:59;;;;;;;19.82;11.48;;;;;;;11.29;71.66;99128.02;1765684;79;20921;-78
2022/04/16 02:25:27;;;;;;;17.45;11.50;;;;;;;11.29;71.73;99143.98;1814594;79;21358;-74
2022/04/16 02:27:56;;;;;;;19.90;11.35;;;;;;;11.29;71.77;99141.81;1814351;79;21762;-77
2022/04/16 02:30:27;;;;;;;15.43;9.68;;;;;;;11.25;71.83;99141.67;1814509;79;20934;-75
2022/04/16 02:32:58;;;;;;;16.85;9.93;;;;;;;11.26;71.83;99136.38;1785867;79;20989;-76
2022/04/16 02:35:26;;;;;;;16.48;11.03;;;;;;;11.25;71.83;99127.06;1814948;79;21419;-77
2022/04/16 02:47:30;;;;;;;23.42;13.18;;;;;;;11.03;73.17;99138.63;1814472;79;21012;-78
2022/04/16 02:49:57;;;;;;;21.10;12.68;;;;;;;11.02;73.46;99152.97;1814484;79;20878;-75
2022/04/16 02:52:37;;;;;;;19.82;12.18;;;;;;;11.00;73.58;99152.52;1814402;79;20969;-77
2022/04/16 02:55:03;;;;;;;24.63;13.72;;;;;;;11.00;73.80;99152.52;1812982;79;21548;-74
2022/04/16 02:57:34;;;;;;;18.82;13.45;;;;;;;11.03;73.92;99149.66;1814430;79;20992;-76
2022/04/16 02:59:59;;;;;;;20.65;13.32;;;;;;;11.04;73.84;99156.77;1812860;79;20917;-78
2022/04/16 03:06:50;;;;;;;22.10;12.28;;;;;;;11.04;73.80;99152.64;1813619;78;20865;-73
2022/04/16 03:10:24;;;;;;;20.25;12.90;;;;;;;11.04;73.67;99148.50;1758257;80;21021;-75
2022/04/16 03:13:05;;;;;;;19.42;11.20;;;;;;;11.05;73.78;99152.89;1772684;79;21356;-75
2022/04/16 03:18:21;;;;;;;20.92;13.58;;;;;;;10.89;74.31;99156.20;1781773;80;20932;-76
2022/04/16 03:20:50;;;;;;;16.90;10.90;;;;;;;10.83;74.64;99160.30;1781815;80;21107;-76
2022/04/16 03:23:19;;;;;;;19.42;13.10;;;;;;;10.83;74.75;99165.80;1780383;80;21934;-76
2022/04/16 03:25:53;;;;;;;19.17;12.28;;;;;;;10.78;74.87;99165.39;1769329;81;20926;-74
2022/04/16 03:28:20;;;;;;;18.25;12.55;;;;;;;10.78;75.18;99168.74;1749059;81;20990;-71
2022/04/16 03:30:47;;;;;;;20.62;11.88;;;;;;;10.76;75.20;99172.39;1777168;80;20928;-73
2022/04/16 03:33:16;;;;;;;24.12;12.80;;;;;;;10.74;75.31;99171.91;1785268;79;20893;-75
2022/04/16 03:35:44;;;;;;;24.30;14.53;;;;;;;10.75;75.38;99168.81;1777237;80;21004;-77
2022/04/16 03:38:13;;;;;;;24.77;13.78;;;;;;;10.79;75.44;99168.41;1772307;80;21036;-74
2022/04/16 03:40:42;;;;;;;23.77;13.05;;;;;;;10.84;75.41;99168.79;1752508;82;21067;-73
2022/04/16 03:43:10;;;;;;;21.27;13.20;;;;;;;10.80;75.30;99159.55;1752474;82;21493;-74
2022/04/16 03:45:40;;;;;;;25.48;12.60;;;;;;;10.70;75.46;99162.92;1752616;82;21397;-75
2022/04/16 03:48:08;;;;;;;20.32;13.60;;;;;;;10.66;75.63;99157.82;1778090;79;21147;-72
2022/04/16 03:50:37;;;;;;;18.98;13.28;;;;;;;10.65;75.84;99160.34;1802656;79;21552;-74
2022/04/16 03:53:04;;;;;;;22.13;13.58;;;;;;;10.63;76.00;99165.38;1783253;80;21456;-72
2022/04/16 04:01:04;;;;;;;20.57;14.63;;;;;;;10.45;77.05;99162.66;1783299;80;21083;-75
2022/04/16 04:03:32;;;;;;;18.55;13.68;;;;;;;10.41;77.26;99168.56;1783095;80;20968;-74
2022/04/16 04:06:00;;;;;;;21.10;13.28;;;;;;;10.43;77.49;99179.25;1783860;80;20961;-79
2022/04/16 04:08:28;;;;;;;19.20;12.70;;;;;;;10.43;77.70;99168.23;1783064;80;20952;-74
2022/04/16 04:11:03;;;;;;;23.50;13.78;;;;;;;10.45;77.78;99172.30;1783190;80;21024;-75
2022/04/16 04:13:32;;;;;;;22.05;13.22;;;;;;;10.51;77.78;99173.53;1783293;80;21149;-74
2022/04/16 04:16:06;;;;;;;18.95;14.00;;;;;;;10.48;77.77;99177.73;1808546;79;21138;-77
2022/04/16 04:18:32;;;;;;;19.90;15.08;;;;;;;10.45;77.92;99182.50;1803693;79;20969;-74
2022/04/16 04:21:01;;;;;;;24.40;13.60;;;;;;;10.40;78.17;99183.48;1808807;79;21032;-75
2022/04/16 04:23:29;;;;;;;21.40;14.05;;;;;;;10.35;78.35;99187.20;1807596;78;21044;-73
2022/04/16 04:25:56;;;;;;;20.30;13.88;;;;;;;10.31;78.67;99190.38;1775864;79;21083;-77
2022/04/16 04:28:22;;;;;;;21.33;13.45;;;;;;;10.28;78.79;99191.04;1797554;79;20922;-80
2022/04/16 04:30:52;;;;;;;21.75;13.53;;;;;;;10.28;78.94;99186.09;1798311;79;20914;-76
2022/04/16 04:33:18;;;;;;;26.65;13.88;;;;;;;10.29;79.16;99189.07;1798015;79;20950;-76
2022/04/16 04:35:45;;;;;;;25.35;15.18;;;;;;;10.28;79.28;99188.84;1797811;79;21446;-76
2022/04/16 04:38:12;;;;;;;19.42;14.20;;;;;;;10.28;79.34;99186.09;1797808;79;21191;-74
2022/04/16 04:40:40;;;;;;;22.90;14.75;;;;;;;10.28;79.29;99189.66;1797752;79;20996;-75
2022/04/16 04:43:08;;;;;;;21.57;14.95;;;;;;;10.27;79.33;99184.48;1798056;79;20897;-77
2022/04/16 04:45:35;;;;;;;19.12;13.62;;;;;;;10.25;79.40;99183.98;1797888;78;20973;-76
2022/04/16 04:48:01;;;;;;;24.30;14.68;;;;;;;10.23;79.49;99187.08;1798121;79;20957;-76
2022/04/16 04:50:30;;;;;;;20.65;15.15;;;;;;;10.20;79.63;99183.59;1798366;79;21228;-73
2022/04/16 04:52:58;;;;;;;22.93;15.58;;;;;;;10.18;79.77;99188.06;1797790;79;20854;-75
2022/04/16 04:55:25;;;;;;;22.75;14.68;;;;;;;10.17;79.95;99183.67;1798182;79;20937;-74
2022/04/16 04:57:54;;;;;;;24.15;14.98;;;;;;;10.22;80.06;99177.17;1797890;79;20949;-77
2022/04/16 05:00:21;;;;;;;21.10;15.72;;;;;;;10.25;79.76;99183.98;1798114;79;21455;-75
2022/04/16 05:02:49;;;;;;;29.50;15.83;;;;;;;10.25;79.72;99182.61;1798326;79;21235;-74
2022/04/16 05:05:16;;;;;;;25.40;16.32;;;;;;;10.27;79.60;99181.14;1798274;79;20970;-73
2022/04/16 05:07:43;;;;;;;27.35;16.70;;;;;;;10.28;79.47;99184.16;1775759;79;20914;-75
2022/04/16 05:10:11;;;;;;;20.80;15.28;;;;;;;10.30;79.30;99183.83;1797340;79;20964;-77
2022/04/16 05:12:43;;;;;;;29.37;16.32;;;;;;;10.31;79.39;99174.41;1802471;79;20985;-80
2022/04/16 05:15:10;;;;;;;23.75;14.83;;;;;;;10.37;79.32;99175.06;1798080;79;21223;-77
2022/04/16 05:17:37;;;;;;;23.87;15.63;;;;;;;10.41;78.98;99179.58;1797839;79;20925;-79
2022/04/16 05:20:09;;;;;;;25.97;16.20;;;;;;;10.45;78.71;99168.72;1797970;79;20846;-76
2022/04/16 05:22:36;;;;;;;23.20;16.50;;;;;;;10.51;78.65;99173.53;1797780;79;20948;-79
2022/04/16 05:25:09;;;;;;;22.52;15.13;;;;;;;10.54;78.37;99175.63;1774439;79;20917;-81
2022/04/16 05:27:37;;;;;;;23.30;15.75;;;;;;;10.60;78.16;99168.79;1797748;79;20889;-75
2022/04/16 05:30:12;;;;;;;27.45;15.53;;;;;;;10.61;78.10;99169.02;1775710;80;21470;-76
2022/04/16 05:32:37;;;;;;;25.43;16.03;;;;;;;10.67;78.02;99166.34;1767317;80;20922;-76
2022/04/16 05:35:09;;;;;;;26.23;15.18;;;;;;;10.69;77.90;99170.97;1766797;81;20937;-76
2022/04/16 05:37:38;;;;;;;24.20;16.32;;;;;;;10.80;77.85;99171.95;1758537;80;20945;-79
2022/04/16 05:40:07;;;;;;;20.43;16.25;;;;;;;10.85;77.36;99174.53;1756699;80;21205;-75
2022/04/16 05:42:41;;;;;;;23.05;14.23;;;;;;;10.91;77.48;99175.16;1759323;80;20957;-74
2022/04/16 05:45:14;;;;;;;20.82;15.10;;;;;;;10.99;77.50;99183.14;1761729;80;20982;-75
2022/04/16 05:47:43;;;;;;;29.25;16.48;;;;;;;11.10;77.36;99176.14;1765878;80;20961;-72
2022/04/16 05:50:15;;;;;;;25.23;16.25;;;;;;;11.23;76.83;99167.38;1760585;80;21044;-75
2022/04/16 05:52:45;;;;;;;25.10;17.62;;;;;;;11.32;76.55;99164.02;1766604;80;21466;-77
2022/04/16 05:55:13;;;;;;;22.95;16.35;;;;;;;11.40;75.84;99160.95;1754897;80;21059;-77
2022/04/16 05:57:41;;;;;;;24.30;17.48;;;;;;;11.49;76.00;99156.77;1753699;80;21016;-75
2022/04/16 06:29:15;;;;;;;27.37;18.65;;;;;;;12.53;71.91;99178.06;1787739;78;21019;-75
2022/04/16 06:31:43;;;;;;;25.48;16.40;;;;;;;12.51;71.32;99183.93;1711520;82;20968;-83
2022/04/16 06:34:12;;;;;;;24.40;17.32;;;;;;;12.53;71.55;99185.78;1709971;84;20925;-77
2022/04/16 06:36:45;;;;;;;25.00;15.23;;;;;;;12.61;71.44;99182.68;1707192;83;21068;-75
2022/04/16 06:39:13;;;;;;;19.23;15.70;;;;;;;12.64;70.71;99179.23;1713396;82;21553;-78
2022/04/16 06:57:00;;;;;;;28.05;18.75;;;;;;;12.31;70.51;99188.92;1707534;82;20998;-81
2022/04/16 06:59:29;;;;;;;21.20;16.00;;;;;;;12.13;71.10;99184.38;1703522;83;21005;-75
2022/04/16 07:01:56;;;;;;;21.55;15.72;;;;;;;12.20;71.47;99183.82;1714564;82;21001;-79
2022/04/16 07:04:30;;;;;;;25.02;18.02;;;;;;;12.24;71.37;99192.23;1749783;81;20980;-74
2022/04/16 07:06:58;;;;;;;25.50;17.10;;;;;;;12.24;71.14;99191.67;1747685;81;21280;-75
2022/04/16 07:36:20;;;;;;;23.10;15.20;;;;;;;12.23;70.96;99205.23;1699807;78;68329;-75
2022/04/16 07:38:48;;;;;;;26.25;16.23;;;;;;;12.21;71.28;99204.79;1697521;83;21178;-76
2022/04/16 07:41:15;;;;;;;25.57;16.97;;;;;;;12.25;71.49;99207.09;1676655;85;20900;-75
2022/04/16 07:43:43;;;;;;;25.48;14.53;;;;;;;12.28;71.48;99211.14;1674502;83;21161;-76
2022/04/16 07:46:09;;;;;;;20.10;13.83;;;;;;;12.35;70.95;99208.62;1677108;85;21548;-76
2022/04/16 07:48:37;;;;;;;24.92;15.72;;;;;;;12.48;70.71;99211.44;1677979;84;21037;-76
2022/04/16 07:51:05;;;;;;;27.27;16.42;;;;;;;12.51;70.01;99212.95;1679198;84;21324;-77
2022/04/16 07:53:31;;;;;;;20.90;14.53;;;;;;;12.43;69.76;99210.27;1671420;83;21166;-76
2022/04/16 07:55:58;;;;;;;23.98;14.40;;;;;;;12.41;70.62;99218.33;1667685;84;21072;-75
2022/04/16 07:58:25;;;;;;;24.72;13.83;;;;;;;12.51;69.63;99214.89;1663891;84;20960;-76
2022/04/16 08:00:51;;;;;;;16.52;11.85;;;;;;;12.61;69.59;99212.27;1657334;84;20905;-76
2022/04/16 08:03:18;;;;;;;19.82;13.83;;;;;;;12.70;69.09;99215.76;1674196;84;21294;-78
2022/04/16 08:05:45;;;;;;;17.73;12.95;;;;;;;12.80;68.38;99210.36;1675485;84;20934;-76
2022/04/16 08:08:13;;;;;;;21.95;11.83;;;;;;;12.99;68.10;99210.39;1665749;85;20953;-77
2022/04/16 08:10:41;;;;;;;18.17;11.95;;;;;;;13.18;67.02;99209.02;1662213;84;20983;-77
2022/04/16 08:13:09;;;;;;;18.35;12.65;;;;;;;13.33;66.44;99209.71;1724173;82;21065;-78
2022/04/16 08:15:37;;;;;;;14.45;10.68;;;;;;;13.51;66.24;99208.91;1736377;82;20918;-77
2022/04/16 08:18:04;;;;;;;16.07;11.85;;;;;;;13.61;64.19;99216.53;1736026;82;20895;-77
2022/04/16 08:20:31;;;;;;;15.20;10.95;;;;;;;13.44;63.97;99212.80;1727781;81;21109;-78
2022/04/16 08:22:59;;;;;;;16.23;12.13;;;;;;;13.26;64.33;99217.20;1723479;82;21022;-76
2022/04/16 08:27:55;;;;;;;14.60;10.48;;;;;;;13.18;64.81;99219.52;1721376;81;21117;-79
2022/04/16 08:30:22;;;;;;;21.33;12.30;;;;;;;13.14;65.29;99216.63;1716628;81;21492;-77
2022/04/16 08:32:49;;;;;;;14.65;10.43;;;;;;;13.26;65.28;99215.83;1726638;82;21041;-76
2022/04/16 08:35:17;;;;;;;16.52;12.07;;;;;;;13.37;64.79;99212.59;1720513;81;21040;-77
2022/04/16 08:37:47;;;;;;;14.70;11.15;;;;;;;13.50;64.75;99208.66;1696194;83;20873;-75
2022/04/16 08:44:20;;;;;;;16.50;11.30;;;;;;;13.65;63.24;99215.26;1700156;83;20932;-76
2022/04/16 08:46:46;;;;;;;17.87;11.65;;;;;;;13.65;62.79;99211.89;1694032;83;21071;-77
2022/04/16 08:49:15;;;;;;;13.18;10.45;;;;;;;13.62;62.23;99206.48;1702946;83;21082;-76
2022/04/16 08:51:43;;;;;;;12.55;9.05;;;;;;;13.56;62.11;99204.31;1711748;83;20929;-76
2022/04/16 08:54:10;;;;;;;14.47;9.80;;;;;;;13.51;61.40;99206.71;1704371;83;21071;-78
2022/04/16 08:56:40;;;;;;;14.60;10.35;;;;;;;13.51;61.50;99206.71;1689162;83;21036;-78
2022/04/16 08:59:06;;;;;;;12.10;9.35;;;;;;;13.51;60.92;99202.56;1703380;83;21449;-78
2022/04/16 09:01:34;;;;;;;13.72;10.43;;;;;;;13.41;60.13;99212.72;1710913;83;20905;-78
2022/04/16 09:04:01;;;;;;;17.00;10.93;;;;;;;13.25;61.18;99216.17;1708814;83;20896;-79
2022/04/16 09:06:27;;;;;;;13.05;10.20;;;;;;;13.17;61.73;99208.80;1687723;83;21172;-77
2022/04/16 09:08:55;;;;;;;14.87;10.23;;;;;;;13.21;62.42;99210.52;1688709;83;20889;-78
2022/04/16 09:11:26;;;;;;;13.13;9.18;;;;;;;13.35;62.14;99203.83;1704585;82;20885;-77
2022/04/16 09:13:55;;;;;;;12.00;8.68;;;;;;;13.51;60.29;99209.48;1677454;83;21013;-77
2022/04/16 09:16:22;;;;;;;12.88;9.05;;;;;;;13.60;60.22;99206.59;1704163;84;20865;-77
2022/04/16 09:18:53;;;;;;;14.47;9.88;;;;;;;13.71;59.83;99195.86;1696411;84;21761;-77
2022/04/16 09:21:26;;;;;;;13.62;8.63;;;;;;;13.71;58.85;99198.63;1703766;84;21048;-77
2022/04/16 09:24:01;;;;;;;13.53;8.48;;;;;;;13.77;58.58;99194.45;1705369;84;21430;-76
2022/04/16 09:26:34;;;;;;;12.55;8.55;;;;;;;13.87;58.42;99208.38;1704537;84;21526;-76
2022/04/16 09:29:08;;;;;;;12.98;8.88;;;;;;;13.88;58.07;99208.63;1696297;84;20989;-77
2022/04/16 09:31:38;;;;;;;11.75;8.53;;;;;;;13.87;58.92;99210.58;1704035;84;21117;-76
2022/04/16 09:34:07;;;;;;;13.90;9.20;;;;;;;13.90;58.44;99216.02;1691081;84;21193;-77
2022/04/16 09:36:39;;;;;;;12.80;8.25;;;;;;;13.87;58.08;99216.69;1710081;81;21082;-77
2022/04/16 09:39:07;;;;;;;13.90;9.43;;;;;;;13.84;58.65;99220.98;1728105;82;20966;-78
2022/04/16 09:41:36;;;;;;;10.88;7.85;;;;;;;13.79;59.29;99223.17;1734973;82;21440;-77
2022/04/16 09:44:04;;;;;;;17.55;9.15;;;;;;;13.39;62.88;99253.97;1734107;82;21133;-76
2022/04/16 09:46:31;;;;;;;15.70;8.30;;;;;;;12.68;65.36;99258.12;1732267;81;21147;-77
2022/04/16 09:49:03;;;;;;;16.10;10.05;;;;;;;12.14;67.48;99273.56;1738502;81;21052;-76
2022/04/16 09:51:34;;;;;;;11.25;7.75;;;;;;;11.86;68.87;99288.66;1753525;81;21002;-77
2022/04/16 09:54:04;;;;;;;15.08;7.58;;;;;;;11.55;70.15;99287.86;1724582;81;21062;-77
2022/04/16 09:56:34;;;;;;;11.57;6.85;;;;;;;11.30;71.16;99296.48;1705006;84;21572;-77
2022/04/16 09:59:08;;;;;;;10.95;7.12;;;;;;;11.07;71.76;99292.61;1709942;82;21119;-77
2022/04/16 10:01:41;;;;;;;11.05;6.28;;;;;;;10.91;72.81;99299.20;1706247;82;21064;-78
2022/04/16 10:04:08;;;;;;;13.10;7.55;;;;;;;10.86;73.58;99304.33;1705690;84;20998;-77
2022/04/16 10:06:35;;;;;;;13.00;6.87;;;;;;;10.88;74.14;99316.40;1711098;82;21014;-79
2022/04/16 10:09:13;;;;;;;13.80;6.78;;;;;;;10.86;74.34;99310.39;1734126;82;20978;-77
2022/04/16 10:14:22;;;;;;;16.75;6.95;;;;;;;10.60;74.74;99312.05;1734694;82;21068;-79
2022/04/16 10:17:09;;;;;;;17.07;7.25;;;;;;;10.35;75.58;99326.27;1725823;82;21026;-77
2022/04/16 10:19:48;;;;;;;12.43;6.97;;;;;;;10.18;76.30;99324.91;1717874;82;21103;-78
2022/04/16 10:22:25;;;;;;;9.50;5.80;;;;;;;10.03;76.82;99322.84;1705506;83;21468;-80
2022/04/16 10:24:56;;;;;;;11.48;4.85;;;;;;;9.91;77.26;99331.72;1706123;83;20911;-79
2022/04/16 10:27:29;;;;;;;6.53;4.80;;;;;;;9.79;77.49;99337.84;1705530;84;20930;-77
2022/04/16 10:30:07;;;;;;;9.95;4.90;;;;;;;9.69;77.82;99333.45;1717425;81;21516;-79
2022/04/16 10:32:43;;;;;;;11.45;5.17;;;;;;;9.47;78.48;99337.08;1722914;81;20950;-78
2022/04/16 10:35:15;;;;;;;11.48;4.10;;;;;;;9.29;79.33;99343.89;1718522;82;21335;-77
2022/04/16 10:37:43;;;;;;;8.18;3.85;;;;;;;9.20;79.76;99345.77;1693377;84;20957;-78
2022/04/16 10:40:23;;;;;;;8.45;2.85;;;;;;;9.10;79.71;99349.59;1685390;82;21002;-77
2022/04/16 10:43:00;;;;;;;6.30;2.42;;;;;;;9.05;79.96;99353.85;1685389;83;20961;-77
2022/04/16 10:45:27;;;;;;;3.02;1.85;;;;;;;8.92;79.74;99366.00;1686079;82;21032;-78
2022/04/16 10:47:57;;;;;;;2.87;1.22;;;;;;;8.82;79.86;99376.66;1701421;84;21586;-77
2022/04/16 10:50:24;;;;;;;2.58;1.20;;;;;;;8.75;79.56;99374.92;1685025;84;20986;-78
2022/04/16 10:53:04;;;;;;;3.02;1.30;;;;;;;8.75;79.43;99366.67;1675293;85;21056;-77
2022/04/16 10:55:31;;;;;;;2.95;1.27;;;;;;;8.72;79.95;99396.12;1675471;85;21071;-76
2022/04/16 10:58:04;;;;;;;2.70;1.07;;;;;;;8.52;80.61;99389.95;1644423;87;21049;-77
2022/04/16 11:00:44;;;;;;;4.47;1.17;;;;;;;8.41;80.70;99387.98;1632789;87;21589;-76
2022/04/16 11:03:17;;;;;;;1.98;0.90;;;;;;;8.35;80.83;99388.68;1674886;85;38287;-78
2022/04/16 11:05:43;;;;;;;6.60;1.25;;;;;;;8.22;80.80;99401.30;1642960;87;21108;-76
2022/04/16 11:08:14;;;;;;;3.35;1.55;;;;;;;8.17;81.04;99395.94;1641945;85;21028;-77
2022/04/16 11:10:41;;;;;;;5.40;1.47;;;;;;;8.20;81.52;99399.98;1678397;83;21049;-78
2022/04/16 11:13:11;;;;;;;3.10;1.30;;;;;;;8.25;81.76;99394.39;1646549;86;21080;-77
2022/04/16 11:15:41;;;;;;;4.30;1.57;;;;;;;8.20;81.36;99404.92;1650741;86;21043;-78
2022/04/16 11:18:07;;;;;;;4.30;1.35;;;;;;;8.17;82.17;99402.80;1653744;86;21048;-77
2022/04/16 11:20:33;;;;;;;1.95;1.05;;;;;;;9.65;80.26;99408.69;1637679;86;21051;-78
2022/04/16 11:23:01;;;;;;;2.60;0.88;;;;;;;8.97;87.11;99419.43;1637525;86;21113;-78
2022/04/16 11:34:14;;;;;;;1.22;0.80;;;;;;;8.52;95.61;99405.87;1632022;87;21068;-78
2022/04/16 11:36:14;;;;;;;2.72;1.55;;;;;;;8.08;91.50;99410.93;1631056;87;21047;-79
2022/04/16 11:38:42;;;;;;;2.75;1.80;;;;;;;8.13;89.08;99407.27;1638397;87;21258;-77
2022/04/16 11:41:11;;;;;;;2.80;1.50;;;;;;;8.16;85.21;99408.02;1672152;84;21095;-77
2022/04/16 11:43:51;;;;;;;1.75;1.10;;;;;;;8.20;84.60;99406.30;1669464;84;21173;-76
2022/04/16 11:46:22;;;;;;;2.65;0.70;;;;;;;8.23;82.91;99415.28;1664453;84;21119;-78
2022/04/16 11:48:50;;;;;;;1.67;0.80;;;;;;;8.23;81.72;99422.15;1670735;85;21119;-78
2022/04/16 11:51:19;;;;;;;0.82;0.60;;;;;;;8.28;81.90;99420.67;1640512;87;21053;-78
2022/04/16 11:53:52;;;;;;;1.20;0.82;;;;;;;8.44;81.82;99434.08;1675854;85;21066;-79
2022/04/16 11:56:21;;;;;;;3.15;0.78;;;;;;;8.46;80.47;99429.06;1671968;85;21041;-77
2022/04/16 11:58:50;;;;;;;0.88;0.60;;;;;;;8.39;80.45;99439.09;1675813;84;21060;-78
2022/04/16 12:01:23;;;;;;;2.30;1.10;;;;;;;8.28;80.69;99451.42;1636522;87;21085;-77
2022/04/16 12:03:56;;;;;;;;;;;;;;;8.12;83.83;99453.09;1678394;85;21232;-77
2022/04/16 12:06:20;;;;;;;1.85;0.80;;;;;;;8.01;84.85;99448.39;1674010;84;20224;-79
2022/04/16 12:08:54;;;;;;;1.00;0.75;;;;;;;7.91;84.53;99439.80;1666114;84;21048;-78
2022/04/16 12:11:23;;;;;;;4.85;1.00;;;;;;;7.84;84.82;99450.36;1672766;85;21038;-78
2022/04/16 12:13:51;;;;;;;1.17;0.80;;;;;;;7.84;85.29;99444.05;1667763;85;21096;-77
2022/04/16 12:16:17;;;;;;;2.35;1.17;;;;;;;7.89;85.50;99443.95;1664418;85;21181;-78
2022/04/16 12:18:46;;;;;;;10.05;3.45;;;;;;;7.90;85.51;99445.02;1664071;85;21035;-78
2022/04/16 12:21:15;;;;;;;10.95;4.97;;;;;;;7.88;84.91;99446.45;1675266;85;21017;-78
2022/04/16 12:23:43;;;;;;;4.33;1.65;;;;;;;7.90;84.99;99442.27;1675230;85;20976;-78
2022/04/16 12:26:16;;;;;;;5.67;1.85;;;;;;;7.89;84.10;99437.09;1672097;84;21127;-78
2022/04/16 12:28:51;;;;;;;8.88;4.35;;;;;;;7.81;83.59;99448.22;1640264;87;21029;-79
2022/04/16 12:31:26;;;;;;;4.42;3.05;;;;;;;7.81;83.59;99448.22;1640713;85;21032;-78
2022/04/16 12:33:53;;;;;;;4.85;2.85;;;;;;;7.85;83.05;99442.92;1638220;85;21083;-78
2022/04/16 12:36:20;;;;;;;4.75;2.40;;;;;;;7.81;82.73;99444.11;1646271;86;21100;-79
2022/04/16 12:38:48;;;;;;;3.47;1.02;;;;;;;7.86;82.70;99444.02;1665530;84;21061;-78
2022/04/16 12:41:17;;;;;;;1.52;1.00;;;;;;;7.86;81.88;99454.98;1672515;84;21498;-78
2022/04/16 12:43:45;;;;;;;3.05;1.40;;;;;;;7.95;81.79;99446.84;1665454;86;21007;-77
2022/04/16 12:46:12;;;;;;;3.02;1.82;;;;;;;7.99;80.67;99453.36;1653242;86;21072;-77
2022/04/16 12:48:40;;;;;;;6.58;2.98;;;;;;;8.00;80.23;99454.19;1666868;86;21067;-77
2022/04/16 12:51:06;;;;;;;3.92;1.95;;;;;;;8.05;79.01;99455.45;1656434;86;21545;-78
2022/04/16 12:53:32;;;;;;;1.22;0.40;;;;;;;8.09;79.40;99461.13;1652947;85;21242;-78
2022/04/16 12:56:00;;;;;;;1.00;0.30;;;;;;;8.12;77.65;99460.54;1667123;86;21081;-78
2022/04/16 12:58:28;;;;;;;1.92;1.00;;;;;;;8.11;76.62;99461.09;1657844;85;21049;-77
2022/04/16 13:00:55;;;;;;;9.43;4.67;;;;;;;8.12;77.23;99464.66;1685300;83;21036;-79
2022/04/16 13:03:22;;;;;;;12.43;2.22;;;;;;;8.16;76.20;99477.45;1687063;84;20962;-79
2022/04/16 13:05:50;;;;;;;2.65;1.22;;;;;;;8.11;75.92;99475.36;1668890;86;21161;-78
2022/04/16 13:08:17;;;;;;;3.67;1.70;;;;;;;8.09;75.85;99475.67;1649366;87;21060;-77
2022/04/16 13:10:45;;;;;;;2.17;1.00;;;;;;;8.14;75.83;99474.75;1647961;87;21013;-77
2022/04/16 13:13:13;;;;;;;0.55;0.55;;;;;;;8.06;74.83;99493.30;1648901;87;21028;-77
2022/04/16 13:15:41;;;;;;;3.10;0.75;;;;;;;7.99;74.15;99497.81;1645025;87;21486;-77
2022/04/16 13:18:08;;;;;;;3.35;2.25;;;;;;;7.88;73.00;99504.86;1649013;87;22185;-78
2022/04/16 13:20:40;;;;;;;11.93;7.47;;;;;;;7.76;73.25;99501.23;1648794;87;21549;-77
2022/04/16 13:23:07;;;;;;;7.15;3.58;;;;;;;7.70;73.48;99498.33;1648840;87;21065;-78
2022/04/16 13:25:34;;;;;;;5.00;1.37;;;;;;;7.63;73.51;99500.09;1649052;87;21129;-78
2022/04/16 13:28:02;;;;;;;1.90;1.07;;;;;;;7.57;73.37;99497.73;1645018;87;21170;-77
2022/04/16 13:30:32;;;;;;;1.32;0.90;;;;;;;7.50;73.79;99499.50;1647741;85;21326;-78
2022/04/16 13:33:00;;;;;;;2.25;1.42;;;;;;;7.49;73.70;99495.93;1664527;86;21084;-77
2022/04/16 13:35:26;;;;;;;7.03;1.65;;;;;;;7.47;73.39;99498.73;1661044;85;21088;-76
2022/04/16 13:37:54;;;;;;;15.03;9.15;;;;;;;7.41;73.35;99500.19;1661426;84;21033;-77
2022/04/16 13:43:06;;;;;;;2.80;2.00;;;;;;;7.31;73.92;99509.94;1662076;86;21248;-78
2022/04/16 13:45:33;;;;;;;4.62;2.58;;;;;;;7.29;74.55;99511.61;1649413;85;21489;-76
2022/04/16 13:47:59;;;;;;;3.25;1.80;;;;;;;7.25;74.68;99517.99;1693580;82;21526;-77
2022/04/16 13:50:27;;;;;;;7.20;4.37;;;;;;;7.17;74.42;99521.66;1703731;82;21710;-78
2022/04/16 13:52:53;;;;;;;3.83;2.27;;;;;;;7.17;74.97;99518.09;1690724;84;21088;-78
2022/04/16 13:55:20;;;;;;;3.70;2.40;;;;;;;7.11;77.84;99516.00;1699254;82;21135;-76
2022/04/16 13:57:47;;;;;;;2.85;1.47;;;;;;;7.04;77.03;99529.25;1676795;84;21638;-77
2022/04/16 14:00:16;;;;;;;5.22;1.40;;;;;;;6.99;82.59;99524.67;1640769;85;21065;-76
2022/04/16 14:02:45;;;;;;;4.72;2.20;;;;;;;6.99;78.10;99517.81;1650369;85;21064;-77
2022/04/16 14:07:57;;;;;;;3.33;2.52;;;;;;;6.95;76.84;99531.84;1650549;85;21071;-79
2022/04/16 14:10:27;;;;;;;4.15;1.45;;;;;;;6.99;76.16;99536.17;1647313;85;21033;-78
2022/04/16 14:12:55;;;;;;;3.60;1.70;;;;;;;6.97;75.55;99541.95;1702618;82;21045;-79
2022/04/16 14:15:22;;;;;;;2.50;1.40;;;;;;;6.99;75.67;99538.37;1688699;82;21033;-79